sensor_id;sensor_type;location;lat;lon;timestamp;pressure;altitude;pressure_sealevel;temperature;humidity
45247;BME280;31529;51.158;7.354;2023-05-09T00:00:03;98186.00;;;16.05;100.00
45247;BME280;31529;51.158;7.354;2023-05-09T00:00:36;98179.53;;;16.06;100.00
45247;BME280;31529;51.158;7.354;2023-05-09T00:01:11;98182.22;;;16.06;100.00
45247;BME280;31529;51.158;7.354;2023-05-09T00:01:43;98175.25;;;16.05;100.00
45247;BME280;31529;51.158;7.354;2023-05-09T00:02:15;98179.53;;;16.06;100.00
45247;BME280;31529;51.158;7.354;2023-05-09T00:02:46;98181.09;;;16.07;100.00
45247;BME280;31529;51.158;7.354;2023-05-09T00:03:18;98171.16;;;16.07;100.00
45247;BME280;31529;51.158;7.354;2023-05-09T00:03:49;98177.31;;;16.08;100.00
45247;BME280;31529;51.158;7.354;2023-05-09T00:04:21;98171.94;;;16.08;100.00
45247;BME280;31529;51.158;7.354;2023-05-09T00:04:53;98175.41;;;16.08;100.00
45247;BME280;31529;51.158;7.354;2023-05-09T00:05:26;98170.84;;;16.09;100.00
45247;BME280;31529;51.158;7.354;2023-05-09T00:05:57;98174.81;;;16.11;100.00
45247;BME280;31529;51.158;7.354;2023-05-09T00:06:28;98174.81;;;16.11;100.00
45247;BME280;31529;51.158;7.354;2023-05-09T00:07:00;98172.91;;;16.12;100.00
45247;BME280;31529;51.158;7.354;2023-05-09T00:07:31;98168.28;;;16.12;100.00
45247;BME280;31529;51.158;7.354;2023-05-09T00:08:02;98172.91;;;16.12;100.00
45247;BME280;31529;51.158;7.354;2023-05-09T00:08:33;98170.19;;;16.12;100.00
45247;BME280;31529;51.158;7.354;2023-05-09T00:09:05;98172.91;;;16.12;100.00
45247;BME280;31529;51.158;7.354;2023-05-09T00:09:36;98167.50;;;16.12;100.00
45247;BME280;31529;51.158;7.354;2023-05-09T00:10:07;98168.28;;;16.12;100.00
45247;BME280;31529;51.158;7.354;2023-05-09T00:10:39;98172.09;;;16.11;100.00
45247;BME280;31529;51.158;7.354;2023-05-09T00:11:10;98167.50;;;16.12;100.00
45247;BME280;31529;51.158;7.354;2023-05-09T00:11:41;98169.41;;;16.11;100.00
45247;BME280;31529;51.158;7.354;2023-05-09T00:12:12;98162.13;;;16.12;100.00
45247;BME280;31529;51.158;7.354;2023-05-09T00:12:43;98167.50;;;16.12;100.00
45247;BME280;31529;51.158;7.354;2023-05-09T00:13:14;98164.81;;;16.12;100.00
45247;BME280;31529;51.158;7.354;2023-05-09T00:13:45;98157.88;;;16.11;100.00
45247;BME280;31529;51.158;7.354;2023-05-09T00:14:16;98169.72;;;16.10;100.00
45247;BME280;31529;51.158;7.354;2023-05-09T00:14:48;98164.34;;;16.10;100.00
45247;BME280;31529;51.158;7.354;2023-05-09T00:15:21;98162.78;;;16.09;100.00
45247;BME280;31529;51.158;7.354;2023-05-09T00:15:53;98153.09;;;16.08;100.00
45247;BME280;31529;51.158;7.354;2023-05-09T00:16:24;98163.88;;;16.08;100.00
45247;BME280;31529;51.158;7.354;2023-05-09T00:16:55;98164.97;;;16.07;100.00
45247;BME280;31529;51.158;7.354;2023-05-09T00:17:29;98158.47;;;16.08;100.00
45247;BME280;31529;51.158;7.354;2023-05-09T00:18:00;98173.03;;;16.07;100.00
45247;BME280;31529;51.158;7.354;2023-05-09T00:18:31;98164.19;;;16.06;100.00
45247;BME280;31529;51.158;7.354;2023-05-09T00:19:03;98162.59;;;16.05;100.00
45247;BME280;31529;51.158;7.354;2023-05-09T00:19:34;98161.78;;;16.05;100.00
45247;BME280;31529;51.158;7.354;2023-05-09T00:20:07;98159.44;;;16.03;100.00
45247;BME280;31529;51.158;7.354;2023-05-09T00:20:41;98159.44;;;16.03;100.00
45247;BME280;31529;51.158;7.354;2023-05-09T00:21:14;98157.84;;;16.02;100.00
45247;BME280;31529;51.158;7.354;2023-05-09T00:21:45;98157.06;;;16.02;100.00
45247;BME280;31529;51.158;7.354;2023-05-09T00:22:16;98148.16;;;16.01;100.00
45247;BME280;31529;51.158;7.354;2023-05-09T00:22:48;98147.38;;;16.00;100.00
45247;BME280;31529;51.158;7.354;2023-05-09T00:23:20;98150.06;;;16.00;100.00
45247;BME280;31529;51.158;7.354;2023-05-09T00:23:51;98160.06;;;16.00;100.00
45247;BME280;31529;51.158;7.354;2023-05-09T00:24:22;98149.59;;;15.98;100.00
45247;BME280;31529;51.158;7.354;2023-05-09T00:24:53;98156.09;;;15.97;100.00
45247;BME280;31529;51.158;7.354;2023-05-09T00:25:24;98157.97;;;15.97;100.00
45247;BME280;31529;51.158;7.354;2023-05-09T00:25:55;98152.94;;;15.95;100.00
45247;BME280;31529;51.158;7.354;2023-05-09T00:26:26;98151.34;;;15.94;100.00
45247;BME280;31529;51.158;7.354;2023-05-09T00:26:57;98150.53;;;15.94;100.00
45247;BME280;31529;51.158;7.354;2023-05-09T00:27:29;98152.44;;;15.93;100.00
45247;BME280;31529;51.158;7.354;2023-05-09T00:28:00;98156.25;;;15.92;100.00
45247;BME280;31529;51.158;7.354;2023-05-09T00:28:31;98151.94;;;15.91;100.00
45247;BME280;31529;51.158;7.354;2023-05-09T00:29:02;98150.38;;;15.90;100.00
45247;BME280;31529;51.158;7.354;2023-05-09T00:29:34;98159.22;;;15.91;100.00
45247;BME280;31529;51.158;7.354;2023-05-09T00:30:05;98157.66;;;15.90;100.00
45247;BME280;31529;51.158;7.354;2023-05-09T00:30:37;98152.59;;;15.88;100.00
45247;BME280;31529;51.158;7.354;2023-05-09T00:31:08;98141.84;;;15.88;100.00
45247;BME280;31529;51.158;7.354;2023-05-09T00:31:39;98157.16;;;15.88;100.00
45247;BME280;31529;51.158;7.354;2023-05-09T00:32:10;98154.81;;;15.86;100.00
45247;BME280;31529;51.158;7.354;2023-05-09T00:32:41;98145.13;;;15.85;100.00
45247;BME280;31529;51.158;7.354;2023-05-09T00:33:12;98144.34;;;15.85;100.00
45247;BME280;31529;51.158;7.354;2023-05-09T00:33:44;98147.03;;;15.85;100.00
45247;BME280;31529;51.158;7.354;2023-05-09T00:34:15;98145.44;;;15.84;100.00
45247;BME280;31529;51.158;7.354;2023-05-09T00:34:46;98149.25;;;15.83;100.00
45247;BME280;31529;51.158;7.354;2023-05-09T00:35:17;98143.06;;;15.82;100.00
45247;BME280;31529;51.158;7.354;2023-05-09T00:35:49;98141.19;;;15.83;100.00
45247;BME280;31529;51.158;7.354;2023-05-09T00:36:20;98140.72;;;15.80;100.00
45247;BME280;31529;51.158;7.354;2023-05-09T00:36:51;98138.31;;;15.79;100.00
45247;BME280;31529;51.158;7.354;2023-05-09T00:37:22;98138.31;;;15.79;100.00
45247;BME280;31529;51.158;7.354;2023-05-09T00:37:53;98142.91;;;15.78;100.00
45247;BME280;31529;51.158;7.354;2023-05-09T00:38:24;98147.47;;;15.78;100.00
45247;BME280;31529;51.158;7.354;2023-05-09T00:38:55;98136.72;;;15.78;100.00
45247;BME280;31529;51.158;7.354;2023-05-09T00:39:26;98146.69;;;15.77;100.00
45247;BME280;31529;51.158;7.354;2023-05-09T00:39:58;98145.13;;;15.76;100.00
45247;BME280;31529;51.158;7.354;2023-05-09T00:40:29;98145.13;;;15.76;100.00
45247;BME280;31529;51.158;7.354;2023-05-09T00:41:00;98143.53;;;15.75;100.00
45247;BME280;31529;51.158;7.354;2023-05-09T00:41:32;98141.16;;;15.74;100.00
45247;BME280;31529;51.158;7.354;2023-05-09T00:42:03;98141.94;;;15.74;100.00
45247;BME280;31529;51.158;7.354;2023-05-09T00:42:34;98139.25;;;15.74;100.00
45247;BME280;31529;51.158;7.354;2023-05-09T00:43:05;98137.69;;;15.73;100.00
45247;BME280;31529;51.158;7.354;2023-05-09T00:43:37;98134.16;;;15.73;100.00
45247;BME280;31529;51.158;7.354;2023-05-09T00:44:08;98134.16;;;15.73;100.00
45247;BME280;31529;51.158;7.354;2023-05-09T00:44:39;98141.41;;;15.72;100.00
45247;BME280;31529;51.158;7.354;2023-05-09T00:45:10;98133.34;;;15.72;100.00
45247;BME280;31529;51.158;7.354;2023-05-09T00:45:41;98135.25;;;15.72;100.00
45247;BME280;31529;51.158;7.354;2023-05-09T00:46:13;98137.16;;;15.71;100.00
45247;BME280;31529;51.158;7.354;2023-05-09T00:46:45;98131.00;;;15.71;100.00
45247;BME280;31529;51.158;7.354;2023-05-09T00:47:16;98127.81;;;15.69;100.00
45247;BME280;31529;51.158;7.354;2023-05-09T00:47:47;98130.50;;;15.69;100.00
45247;BME280;31529;51.158;7.354;2023-05-09T00:48:18;98131.31;;;15.69;100.00
45247;BME280;31529;51.158;7.354;2023-05-09T00:48:50;98126.22;;;15.68;100.00
45247;BME280;31529;51.158;7.354;2023-05-09T00:49:22;98126.22;;;15.68;100.00
45247;BME280;31529;51.158;7.354;2023-05-09T00:49:53;98116.25;;;15.68;100.00
45247;BME280;31529;51.158;7.354;2023-05-09T00:50:26;98120.06;;;15.67;100.00
45247;BME280;31529;51.158;7.354;2023-05-09T00:50:57;98126.22;;;15.68;100.00
45247;BME280;31529;51.158;7.354;2023-05-09T00:51:28;98117.38;;;15.67;100.00
45247;BME280;31529;51.158;7.354;2023-05-09T00:52:01;98124.63;;;15.67;100.00
45247;BME280;31529;51.158;7.354;2023-05-09T00:52:32;98123.06;;;15.66;100.00
45247;BME280;31529;51.158;7.354;2023-05-09T00:53:04;98123.84;;;15.66;100.00
45247;BME280;31529;51.158;7.354;2023-05-09T00:53:35;98116.56;;;15.67;100.00
45247;BME280;31529;51.158;7.354;2023-05-09T00:54:06;98116.09;;;15.65;100.00
45247;BME280;31529;51.158;7.354;2023-05-09T00:54:38;98126.84;;;15.65;100.00
45247;BME280;31529;51.158;7.354;2023-05-09T00:55:09;97894.88;;;14.18;100.00
45247;BME280;31529;51.158;7.354;2023-05-09T00:55:41;98120.69;;;15.64;100.00
45247;BME280;31529;51.158;7.354;2023-05-09T00:56:12;98111.00;;;15.63;100.00
45247;BME280;31529;51.158;7.354;2023-05-09T00:56:45;98110.72;;;15.65;100.00
45247;BME280;31529;51.158;7.354;2023-05-09T00:57:16;98120.69;;;15.64;100.00
45247;BME280;31529;51.158;7.354;2023-05-09T00:57:47;98102.16;;;15.62;100.00
45247;BME280;31529;51.158;7.354;2023-05-09T00:58:18;98118.31;;;15.62;100.00
45247;BME280;31529;51.158;7.354;2023-05-09T00:58:49;98109.44;;;15.62;100.00
45247;BME280;31529;51.158;7.354;2023-05-09T00:59:21;98114.03;;;15.61;100.00
45247;BME280;31529;51.158;7.354;2023-05-09T00:59:52;98103.28;;;15.61;100.00
45247;BME280;31529;51.158;7.354;2023-05-09T01:00:23;98108.66;;;15.61;100.00
45247;BME280;31529;51.158;7.354;2023-05-09T01:00:55;98107.06;;;15.60;100.00
45247;BME280;31529;51.158;7.354;2023-05-09T01:01:26;98110.53;;;15.61;100.00
45247;BME280;31529;51.158;7.354;2023-05-09T01:01:57;98100.13;;;15.59;100.00
45247;BME280;31529;51.158;7.354;2023-05-09T01:02:28;98108.19;;;15.59;100.00
45247;BME280;31529;51.158;7.354;2023-05-09T01:02:59;98102.81;;;15.59;100.00
45247;BME280;31529;51.158;7.354;2023-05-09T01:03:30;98100.13;;;15.59;100.00
45247;BME280;31529;51.158;7.354;2023-05-09T01:04:02;98100.91;;;15.60;100.00
45247;BME280;31529;51.158;7.354;2023-05-09T01:04:33;98096.63;;;15.59;100.00
45247;BME280;31529;51.158;7.354;2023-05-09T01:05:04;98098.50;;;15.58;100.00
45247;BME280;31529;51.158;7.354;2023-05-09T01:05:53;98097.44;;;15.59;100.00
45247;BME280;31529;51.158;7.354;2023-05-09T01:07:16;98095.81;;;15.58;100.00
45247;BME280;31529;51.158;7.354;2023-05-09T01:07:29;98104.69;;;15.59;100.00
45247;BME280;31529;51.158;7.354;2023-05-09T01:08:20;98102.28;;;15.57;100.00
45247;BME280;31529;51.158;7.354;2023-05-09T01:09:07;98095.03;;;15.58;100.00
45247;BME280;31529;51.158;7.354;2023-05-09T01:09:51;98094.22;;;15.57;100.00
45247;BME280;31529;51.158;7.354;2023-05-09T01:10:33;98095.03;;;15.58;100.00
45247;BME280;31529;51.158;7.354;2023-05-09T01:11:26;98093.44;;;15.57;100.00
45247;BME280;31529;51.158;7.354;2023-05-09T01:12:03;98091.88;;;15.56;100.00
45247;BME280;31529;51.158;7.354;2023-05-09T01:12:46;98096.44;;;15.55;100.00
45247;BME280;31529;51.158;7.354;2023-05-09T01:13:26;98092.19;;;15.54;100.00
45247;BME280;31529;51.158;7.354;2023-05-09T01:14:04;98085.22;;;15.53;100.00
45247;BME280;31529;51.158;7.354;2023-05-09T01:15:41;98086.03;;;15.54;100.00
45247;BME280;31529;51.158;7.354;2023-05-09T01:16:25;98075.25;;;15.54;100.00
45247;BME280;31529;51.158;7.354;2023-05-09T01:17:12;98080.94;;;15.52;100.00
45247;BME280;31529;51.158;7.354;2023-05-09T01:17:57;98087.91;;;15.53;100.00
45247;BME280;31529;51.158;7.354;2023-05-09T01:18:51;98075.56;;;15.52;100.00
45247;BME280;31529;51.158;7.354;2023-05-09T01:20:21;98080.47;;;15.50;100.00
45247;BME280;31529;51.158;7.354;2023-05-09T01:21:04;98080.00;;;15.48;100.00
45247;BME280;31529;51.158;7.354;2023-05-09T01:21:39;98085.38;;;15.48;100.00
45247;BME280;31529;51.158;7.354;2023-05-09T01:22:12;98083.78;;;15.47;100.00
45247;BME280;31529;51.158;7.354;2023-05-09T01:22:47;98077.63;;;15.47;100.00
45247;BME280;31529;51.158;7.354;2023-05-09T01:24:49;98075.22;;;15.45;100.00
45247;BME280;31529;51.158;7.354;2023-05-09T01:25:57;98070.63;;;15.46;100.00
45247;BME280;31529;51.158;7.354;2023-05-09T01:26:51;98072.53;;;15.45;100.00
45247;BME280;31529;51.158;7.354;2023-05-09T01:28:34;98076.31;;;15.44;100.00
45247;BME280;31529;51.158;7.354;2023-05-09T01:30:00;98068.25;;;15.44;100.00
45247;BME280;31529;51.158;7.354;2023-05-09T01:30:34;98070.94;;;15.44;100.00
45247;BME280;31529;51.158;7.354;2023-05-09T01:31:07;98068.25;;;15.44;100.00
45247;BME280;31529;51.158;7.354;2023-05-09T01:31:40;98072.53;;;15.45;100.00
45247;BME280;31529;51.158;7.354;2023-05-09T01:32:16;98073.63;;;15.44;100.00
45247;BME280;31529;51.158;7.354;2023-05-09T01:32:51;98076.31;;;15.44;100.00
45247;BME280;31529;51.158;7.354;2023-05-09T01:33:26;98073.63;;;15.44;100.00
45247;BME280;31529;51.158;7.354;2023-05-09T01:34:02;98071.75;;;15.45;100.00
45247;BME280;31529;51.158;7.354;2023-05-09T01:34:37;98064.47;;;15.45;100.00
45247;BME280;31529;51.158;7.354;2023-05-09T01:35:10;98070.63;;;15.46;100.00
45247;BME280;31529;51.158;7.354;2023-05-09T01:35:45;98068.75;;;15.46;100.00
45247;BME280;31529;51.158;7.354;2023-05-09T01:36:21;98072.22;;;15.47;100.00
45247;BME280;31529;51.158;7.354;2023-05-09T01:36:54;98065.25;;;15.46;100.00
45247;BME280;31529;51.158;7.354;2023-05-09T01:37:32;98066.06;;;15.46;100.00
45247;BME280;31529;51.158;7.354;2023-05-09T01:38:08;98067.16;;;15.45;100.00
45247;BME280;31529;51.158;7.354;2023-05-09T01:38:43;98059.09;;;15.45;100.00
45247;BME280;31529;51.158;7.354;2023-05-09T01:39:17;98058.31;;;15.45;100.00
45247;BME280;31529;51.158;7.354;2023-05-09T01:39:50;98070.94;;;15.44;100.00
45247;BME280;31529;51.158;7.354;2023-05-09T01:40:25;98065.56;;;15.44;100.00
45247;BME280;31529;51.158;7.354;2023-05-09T01:41:01;98069.06;;;15.45;100.00
45247;BME280;31529;51.158;7.354;2023-05-09T01:41:35;98066.69;;;15.43;100.00
45247;BME280;31529;51.158;7.354;2023-05-09T01:42:07;98060.53;;;15.42;100.00
45247;BME280;31529;51.158;7.354;2023-05-09T01:43:00;98063.22;;;15.42;100.00
45247;BME280;31529;51.158;7.354;2023-05-09T01:43:33;98064.31;;;15.41;100.00
45247;BME280;31529;51.158;7.354;2023-05-09T01:44:07;98059.72;;;15.42;100.00
45247;BME280;31529;51.158;7.354;2023-05-09T01:44:41;98058.13;;;15.41;100.00
45247;BME280;31529;51.158;7.354;2023-05-09T01:45:14;98066.22;;;15.41;100.00
45247;BME280;31529;51.158;7.354;2023-05-09T01:45:46;98060.81;;;15.41;100.00
45247;BME280;31529;51.158;7.354;2023-05-09T01:46:19;98065.09;;;15.42;100.00
45247;BME280;31529;51.158;7.354;2023-05-09T01:46:52;98063.50;;;15.41;100.00
45247;BME280;31529;51.158;7.354;2023-05-09T01:47:25;98056.22;;;15.41;100.00
45247;BME280;31529;51.158;7.354;2023-05-09T01:47:57;98058.13;;;15.41;100.00
45247;BME280;31529;51.158;7.354;2023-05-09T01:48:30;98063.50;;;15.41;100.00
45247;BME280;31529;51.158;7.354;2023-05-09T01:49:01;98060.53;;;15.42;100.00
45247;BME280;31529;51.158;7.354;2023-05-09T01:49:34;98059.72;;;15.42;100.00
45247;BME280;31529;51.158;7.354;2023-05-09T01:50:08;98064.31;;;15.41;100.00
45247;BME280;31529;51.158;7.354;2023-05-09T01:50:41;98058.91;;;15.41;100.00
45247;BME280;31529;51.158;7.354;2023-05-09T01:51:14;98068.09;;;15.40;100.00
45247;BME280;31529;51.158;7.354;2023-05-09T01:51:46;98059.72;;;15.42;100.00
45247;BME280;31529;51.158;7.354;2023-05-09T01:52:19;98062.41;;;15.42;100.00
45247;BME280;31529;51.158;7.354;2023-05-09T01:52:54;98059.72;;;15.42;100.00
45247;BME280;31529;51.158;7.354;2023-05-09T01:53:25;98059.72;;;15.42;100.00
45247;BME280;31529;51.158;7.354;2023-05-09T01:53:58;98062.41;;;15.42;100.00
45247;BME280;31529;51.158;7.354;2023-05-09T01:54:31;98057.03;;;15.42;100.00
45247;BME280;31529;51.158;7.354;2023-05-09T01:55:04;98062.41;;;15.42;100.00
45247;BME280;31529;51.158;7.354;2023-05-09T01:55:36;98064.31;;;15.41;100.00
45247;BME280;31529;51.158;7.354;2023-05-09T01:56:10;98060.81;;;15.41;100.00
45247;BME280;31529;51.158;7.354;2023-05-09T01:56:42;98065.09;;;15.42;100.00
45247;BME280;31529;51.158;7.354;2023-05-09T01:57:15;98064.00;;;15.43;100.00
45247;BME280;31529;51.158;7.354;2023-05-09T01:57:48;97984.59;;;14.88;100.00
45247;BME280;31529;51.158;7.354;2023-05-09T01:58:20;98061.31;;;15.43;100.00
45247;BME280;31529;51.158;7.354;2023-05-09T01:58:54;98060.53;;;15.42;100.00
45247;BME280;31529;51.158;7.354;2023-05-09T01:59:26;98061.31;;;15.43;100.00
45247;BME280;31529;51.158;7.354;2023-05-09T01:59:59;98062.88;;;15.44;100.00
45247;BME280;31529;51.158;7.354;2023-05-09T02:00:33;98067.16;;;15.45;100.00
45247;BME280;31529;51.158;7.354;2023-05-09T02:01:04;98062.88;;;15.44;100.00
45247;BME280;31529;51.158;7.354;2023-05-09T02:01:35;98062.88;;;15.44;100.00
45247;BME280;31529;51.158;7.354;2023-05-09T02:02:07;98069.84;;;15.45;100.00
45247;BME280;31529;51.158;7.354;2023-05-09T02:02:39;98067.16;;;15.45;100.00
45247;BME280;31529;51.158;7.354;2023-05-09T02:03:11;98060.69;;;15.46;100.00
45247;BME280;31529;51.158;7.354;2023-05-09T02:03:44;98063.38;;;15.46;100.00
45247;BME280;31529;51.158;7.354;2023-05-09T02:04:16;98061.47;;;15.47;100.00
45247;BME280;31529;51.158;7.354;2023-05-09T02:04:49;98064.94;;;15.47;100.00
45247;BME280;31529;51.158;7.354;2023-05-09T02:05:20;98060.34;;;15.48;100.00
45247;BME280;31529;51.158;7.354;2023-05-09T02:05:57;98063.03;;;15.48;100.00
45247;BME280;31529;51.158;7.354;2023-05-09T02:06:28;98055.78;;;15.48;100.00
45247;BME280;31529;51.158;7.354;2023-05-09T02:07:01;98060.06;;;15.49;100.00
45247;BME280;31529;51.158;7.354;2023-05-09T02:07:35;98061.66;;;15.50;100.00
45247;BME280;31529;51.158;7.354;2023-05-09T02:08:07;98056.28;;;15.50;100.00
45247;BME280;31529;51.158;7.354;2023-05-09T02:08:39;98055.44;;;15.50;100.00
45247;BME280;31529;51.158;7.354;2023-05-09T02:09:10;98054.34;;;15.51;100.00
45247;BME280;31529;51.158;7.354;2023-05-09T02:09:42;98054.34;;;15.51;100.00
45247;BME280;31529;51.158;7.354;2023-05-09T02:10:13;98050.88;;;15.50;100.00
45247;BME280;31529;51.158;7.354;2023-05-09T02:10:46;98053.56;;;15.50;100.00
45247;BME280;31529;51.158;7.354;2023-05-09T02:11:19;98046.28;;;15.51;100.00
45247;BME280;31529;51.158;7.354;2023-05-09T02:11:50;98050.88;;;15.50;100.00
45247;BME280;31529;51.158;7.354;2023-05-09T02:12:24;98053.56;;;15.50;100.00
45247;BME280;31529;51.158;7.354;2023-05-09T02:12:55;98048.19;;;15.50;100.00
45247;BME280;31529;51.158;7.354;2023-05-09T02:13:27;98051.66;;;15.51;100.00
45247;BME280;31529;51.158;7.354;2023-05-09T02:13:58;98044.69;;;15.50;100.00
45247;BME280;31529;51.158;7.354;2023-05-09T02:14:30;98042.00;;;15.50;100.00
45247;BME280;31529;51.158;7.354;2023-05-09T02:15:01;98048.19;;;15.50;100.00
45247;BME280;31529;51.158;7.354;2023-05-09T02:15:32;98044.38;;;15.51;100.00
45247;BME280;31529;51.158;7.354;2023-05-09T02:16:05;98044.69;;;15.50;100.00
45247;BME280;31529;51.158;7.354;2023-05-09T02:16:37;98047.06;;;15.51;100.00
45247;BME280;31529;51.158;7.354;2023-05-09T02:17:09;98048.19;;;15.50;100.00
45247;BME280;31529;51.158;7.354;2023-05-09T02:17:40;98050.88;;;15.50;100.00
45247;BME280;31529;51.158;7.354;2023-05-09T02:18:12;98045.50;;;15.50;100.00
45247;BME280;31529;51.158;7.354;2023-05-09T02:18:43;98047.06;;;15.51;100.00
45247;BME280;31529;51.158;7.354;2023-05-09T02:19:14;98049.78;;;15.51;100.00
45247;BME280;31529;51.158;7.354;2023-05-09T02:19:46;98043.59;;;15.51;100.00
45247;BME280;31529;51.158;7.354;2023-05-09T02:20:17;98041.69;;;15.51;100.00
45247;BME280;31529;51.158;7.354;2023-05-09T02:20:48;98040.91;;;15.51;100.00
45247;BME280;31529;51.158;7.354;2023-05-09T02:21:19;98042.50;;;15.52;100.00
45247;BME280;31529;51.158;7.354;2023-05-09T02:21:50;98044.09;;;15.53;100.00
45247;BME280;31529;51.158;7.354;2023-05-09T02:22:21;98042.50;;;15.52;100.00
45247;BME280;31529;51.158;7.354;2023-05-09T02:22:53;98045.69;;;15.54;100.00
45247;BME280;31529;51.158;7.354;2023-05-09T02:23:24;98050.25;;;15.53;100.00
45247;BME280;31529;51.158;7.354;2023-05-09T02:23:56;98044.88;;;15.53;100.00
45247;BME280;31529;51.158;7.354;2023-05-09T02:24:27;98046.47;;;15.54;100.00
45247;BME280;31529;51.158;7.354;2023-05-09T02:24:58;98050.72;;;15.55;100.00
45247;BME280;31529;51.158;7.354;2023-05-09T02:25:31;98043.47;;;15.56;100.00
45247;BME280;31529;51.158;7.354;2023-05-09T02:26:03;98040.78;;;15.56;100.00
45247;BME280;31529;51.158;7.354;2023-05-09T02:26:35;98045.34;;;15.55;100.00
45247;BME280;31529;51.158;7.354;2023-05-09T02:27:06;98041.56;;;15.56;100.00
45247;BME280;31529;51.158;7.354;2023-05-09T02:27:40;98046.16;;;15.56;100.00
45247;BME280;31529;51.158;7.354;2023-05-09T02:28:13;98042.34;;;15.57;100.00
45247;BME280;31529;51.158;7.354;2023-05-09T02:28:45;98047.72;;;15.57;100.00
45247;BME280;31529;51.158;7.354;2023-05-09T02:29:18;98053.56;;;15.59;100.00
45247;BME280;31529;51.158;7.354;2023-05-09T02:29:53;98042.81;;;15.59;100.00
45247;BME280;31529;51.158;7.354;2023-05-09T02:30:26;98046.31;;;15.59;100.00
45247;BME280;31529;51.158;7.354;2023-05-09T02:31:03;98051.38;;;15.61;100.00
45247;BME280;31529;51.158;7.354;2023-05-09T02:31:36;98055.66;;;15.62;100.00
45247;BME280;31529;51.158;7.354;2023-05-09T02:32:16;98049.16;;;15.63;100.00
45247;BME280;31529;51.158;7.354;2023-05-09T02:32:55;98055.34;;;15.64;100.00
45247;BME280;31529;51.158;7.354;2023-05-09T02:33:30;98051.53;;;15.65;100.00
45247;BME280;31529;51.158;7.354;2023-05-09T02:34:04;98047.75;;;15.66;100.00
45247;BME280;31529;51.158;7.354;2023-05-09T02:34:36;98046.31;;;15.68;100.00
45247;BME280;31529;51.158;7.354;2023-05-09T02:35:09;98050.91;;;15.68;100.00
45247;BME280;31529;51.158;7.354;2023-05-09T02:35:45;98057.88;;;15.69;100.00
45247;BME280;31529;51.158;7.354;2023-05-09T02:36:17;98049.00;;;15.68;100.00
45247;BME280;31529;51.158;7.354;2023-05-09T02:36:49;98054.09;;;15.70;100.00
45247;BME280;31529;51.158;7.354;2023-05-09T02:37:20;98047.09;;;15.69;100.00
45247;BME280;31529;51.158;7.354;2023-05-09T02:37:52;98052.47;;;15.69;100.00
45247;BME280;31529;51.158;7.354;2023-05-09T02:38:25;98055.69;;;15.71;100.00
45247;BME280;31529;51.158;7.354;2023-05-09T02:38:56;98056.47;;;15.71;100.00
45247;BME280;31529;51.158;7.354;2023-05-09T02:39:28;98060.25;;;15.70;100.00
45247;BME280;31529;51.158;7.354;2023-05-09T02:39:59;98058.38;;;15.71;100.00
45247;BME280;31529;51.158;7.354;2023-05-09T02:40:31;98056.47;;;15.71;100.00
45247;BME280;31529;51.158;7.354;2023-05-09T02:41:03;98049.19;;;15.72;100.00
45247;BME280;31529;51.158;7.354;2023-05-09T02:41:34;98049.50;;;15.70;100.00
45247;BME280;31529;51.158;7.354;2023-05-09T02:42:10;98050.31;;;15.71;100.00
45247;BME280;31529;51.158;7.354;2023-05-09T02:42:41;98040.31;;;15.71;100.00
45247;BME280;31529;51.158;7.354;2023-05-09T02:43:12;98051.88;;;15.72;100.00
45247;BME280;31529;51.158;7.354;2023-05-09T02:43:44;98044.91;;;15.71;100.00
45247;BME280;31529;51.158;7.354;2023-05-09T02:44:15;98047.59;;;15.71;100.00
45247;BME280;31529;51.158;7.354;2023-05-09T02:44:47;98054.56;;;15.72;100.00
45247;BME280;31529;51.158;7.354;2023-05-09T02:45:18;98049.19;;;15.72;100.00
45247;BME280;31529;51.158;7.354;2023-05-09T02:45:49;98058.03;;;15.72;100.00
45247;BME280;31529;51.158;7.354;2023-05-09T02:46:20;98057.25;;;15.72;100.00
45247;BME280;31529;51.158;7.354;2023-05-09T02:46:51;98050.78;;;15.73;100.00
45247;BME280;31529;51.158;7.354;2023-05-09T02:47:22;98049.97;;;15.72;100.00
45247;BME280;31529;51.158;7.354;2023-05-09T02:47:53;98051.88;;;15.72;100.00
45247;BME280;31529;51.158;7.354;2023-05-09T02:48:25;98049.19;;;15.72;100.00
45247;BME280;31529;51.158;7.354;2023-05-09T02:48:56;98049.19;;;15.72;100.00
45247;BME280;31529;51.158;7.354;2023-05-09T02:49:27;98051.88;;;15.72;100.00
45247;BME280;31529;51.158;7.354;2023-05-09T02:49:58;98053.47;;;15.73;100.00
45247;BME280;31529;51.158;7.354;2023-05-09T02:50:29;98043.53;;;15.73;100.00
45247;BME280;31529;51.158;7.354;2023-05-09T02:51:01;98049.69;;;15.74;100.00
45247;BME280;31529;51.158;7.354;2023-05-09T02:51:32;98058.84;;;15.73;100.00
45247;BME280;31529;51.158;7.354;2023-05-09T02:52:03;98050.78;;;15.73;100.00
45247;BME280;31529;51.158;7.354;2023-05-09T02:52:34;98053.47;;;15.73;100.00
45247;BME280;31529;51.158;7.354;2023-05-09T02:53:05;98052.38;;;15.74;100.00
45247;BME280;31529;51.158;7.354;2023-05-09T02:53:36;98048.91;;;15.73;100.00
45247;BME280;31529;51.158;7.354;2023-05-09T02:54:07;98049.69;;;15.74;100.00
45247;BME280;31529;51.158;7.354;2023-05-09T02:54:38;98044.31;;;15.74;100.00
45247;BME280;31529;51.158;7.354;2023-05-09T02:55:10;98049.69;;;15.74;100.00
45247;BME280;31529;51.158;7.354;2023-05-09T02:55:41;98049.69;;;15.74;100.00
45247;BME280;31529;51.158;7.354;2023-05-09T02:56:12;98045.09;;;15.74;100.00
45247;BME280;31529;51.158;7.354;2023-05-09T02:56:43;98048.28;;;15.76;100.00
45247;BME280;31529;51.158;7.354;2023-05-09T02:57:14;98042.09;;;15.76;100.00
45247;BME280;31529;51.158;7.354;2023-05-09T02:57:45;98043.69;;;15.77;100.00
45247;BME280;31529;51.158;7.354;2023-05-09T02:58:16;98052.06;;;15.75;100.00